createdAt,value
2023-01-19T00:01:36.603Z,26.08
2023-01-19T00:04:03.094Z,27.40
2023-01-19T00:06:29.611Z,27.83
2023-01-19T00:08:55.979Z,27.15
2023-01-19T00:11:23.096Z,27.35
2023-01-19T00:13:50.610Z,29.48
2023-01-19T00:16:18.262Z,27.25
2023-01-19T00:18:45.662Z,26.50
2023-01-19T00:21:14.781Z,26.05
2023-01-19T00:23:42.330Z,24.23
2023-01-19T00:26:08.787Z,24.45
2023-01-19T00:28:35.175Z,25.35
2023-01-19T00:31:01.641Z,35.40
2023-01-19T00:33:28.234Z,25.05
2023-01-19T00:35:57.369Z,27.40
2023-01-19T00:38:23.774Z,27.33
2023-01-19T00:40:50.328Z,29.08
2023-01-19T00:43:16.707Z,27.25
2023-01-19T00:45:43.133Z,27.58
2023-01-19T00:48:09.629Z,25.15
2023-01-19T00:50:36.304Z,24.90
2023-01-19T00:53:03.340Z,23.83
2023-01-19T00:55:31.378Z,28.08
2023-01-19T00:57:58.147Z,26.08
2023-01-19T01:00:25.051Z,27.65
2023-01-19T01:02:53.109Z,23.50
2023-01-19T01:05:19.819Z,29.65
2023-01-19T01:07:49.395Z,26.30
2023-01-19T01:10:25.139Z,26.08
2023-01-19T01:12:56.360Z,24.23
2023-01-19T01:15:27.778Z,29.73
2023-01-19T01:17:54.840Z,28.77
2023-01-19T01:20:26.979Z,27.42
2023-01-19T01:22:54.254Z,26.15
2023-01-19T01:25:23.310Z,23.90
2023-01-19T01:27:50.134Z,26.27
2023-01-19T01:30:19.669Z,24.48
2023-01-19T01:32:46.221Z,27.42
2023-01-19T01:35:13.792Z,27.85
2023-01-19T01:37:40.436Z,29.23
2023-01-19T01:40:07.471Z,27.55
2023-01-19T01:42:35.324Z,24.05
2023-01-19T01:45:07.432Z,24.27
2023-01-19T01:47:42.636Z,26.63
2023-01-19T01:50:17.767Z,25.27
2023-01-19T01:53:06.572Z,25.58
2023-01-19T01:55:38.009Z,23.45
2023-01-19T01:58:05.875Z,24.90
2023-01-19T02:00:51.028Z,27.02
2023-01-19T02:03:17.580Z,22.33
2023-01-19T02:05:45.546Z,25.65
2023-01-19T02:08:36.872Z,22.40
2023-01-19T02:11:22.209Z,23.45
2023-01-19T02:13:48.972Z,25.25
2023-01-19T02:16:16.923Z,21.77
2023-01-19T02:18:45.210Z,22.95
2023-01-19T02:21:31.839Z,21.13
2023-01-19T02:24:01.522Z,25.55
2023-01-19T02:26:31.737Z,22.50
2023-01-19T02:29:01.952Z,31.15
2023-01-19T02:31:30.643Z,26.83
2023-01-19T02:33:59.214Z,20.50
2023-01-19T02:36:30.664Z,25.25
2023-01-19T02:39:00.192Z,25.75
2023-01-19T02:41:30.896Z,26.70
2023-01-19T02:43:58.818Z,20.17
2023-01-19T02:46:25.742Z,23.50
2023-01-19T02:48:52.284Z,20.70
2023-01-19T02:51:24.030Z,21.58
2023-01-19T02:54:08.737Z,23.13
2023-01-19T02:56:50.577Z,27.08
2023-01-19T02:59:46.951Z,24.50
2023-01-19T03:02:23.921Z,22.70
2023-01-19T03:04:59.663Z,20.95
2023-01-19T03:07:52.072Z,29.23
2023-01-19T03:10:42.084Z,22.20
2023-01-19T03:13:23.671Z,24.58
2023-01-19T03:15:55.469Z,24.33
2023-01-19T03:18:27.006Z,25.52
2023-01-19T03:20:57.421Z,22.58
2023-01-19T03:23:28.656Z,23.80
2023-01-19T03:25:57.689Z,21.55
2023-01-19T03:28:26.614Z,25.38
2023-01-19T03:30:58.637Z,28.75
2023-01-19T03:33:31.912Z,28.65
2023-01-19T03:36:04.213Z,23.95
2023-01-19T03:38:35.119Z,25.65
2023-01-19T03:41:06.700Z,25.33
2023-01-19T03:43:35.340Z,28.88
2023-01-19T03:46:04.385Z,26.15
2023-01-19T03:48:31.513Z,22.75
2023-01-19T03:50:58.179Z,25.15
2023-01-19T03:53:24.581Z,28.08
2023-01-19T03:55:52.031Z,27.77
2023-01-19T03:58:18.380Z,26.55
2023-01-19T04:00:44.881Z,24.33
2023-01-19T04:03:14.823Z,27.42
2023-01-19T04:05:41.675Z,21.98
2023-01-19T04:08:08.121Z,28.08
2023-01-19T04:10:34.631Z,28.02
2023-01-19T04:13:02.481Z,27.48
2023-01-19T04:15:29.690Z,25.83
2023-01-19T04:18:01.045Z,26.65
2023-01-19T04:20:28.238Z,26.00
2023-01-19T04:22:58.691Z,27.58
2023-01-19T04:25:25.191Z,25.48
2023-01-19T04:27:53.084Z,27.00
2023-01-19T04:30:19.927Z,30.67
2023-01-19T04:32:46.786Z,26.92
2023-01-19T04:35:13.168Z,25.95
2023-01-19T04:37:40.158Z,27.70
2023-01-19T04:40:07.364Z,24.98
2023-01-19T04:42:33.894Z,28.85
2023-01-19T04:45:00.271Z,27.10
2023-01-19T04:47:26.904Z,28.15
2023-01-19T04:49:53.276Z,29.05
2023-01-19T04:52:20.278Z,32.03
2023-01-19T04:54:46.631Z,35.25
2023-01-19T04:57:13.079Z,31.33
2023-01-19T04:59:39.488Z,34.95
2023-01-19T05:02:06.048Z,27.55
2023-01-19T05:04:32.587Z,29.92
2023-01-19T05:06:58.957Z,28.73
2023-01-19T05:09:26.858Z,31.42
2023-01-19T05:11:53.321Z,29.27
2023-01-19T05:14:19.936Z,32.78
2023-01-19T05:16:46.291Z,37.28
2023-01-19T05:19:12.844Z,29.95
2023-01-19T05:21:39.429Z,30.75
2023-01-19T05:24:06.404Z,27.73
2023-01-19T05:26:32.830Z,27.67
2023-01-19T05:28:59.207Z,31.65
2023-01-19T05:31:25.859Z,27.42
2023-01-19T05:33:52.528Z,31.27
2023-01-19T05:36:18.887Z,31.85
2023-01-19T05:38:45.278Z,33.30
2023-01-19T05:41:11.652Z,31.85
2023-01-19T05:43:38.065Z,30.88
2023-01-19T05:46:05.275Z,30.13
2023-01-19T05:48:31.671Z,32.42
2023-01-19T05:50:59.288Z,39.08
2023-01-19T05:53:26.340Z,33.97
2023-01-19T05:55:52.697Z,33.92
2023-01-19T05:58:19.103Z,31.33
2023-01-19T06:00:45.616Z,35.63
2023-01-19T06:03:12.459Z,33.63
2023-01-19T06:05:39.417Z,33.33
2023-01-19T06:08:06.012Z,33.47
2023-01-19T06:10:32.381Z,36.17
2023-01-19T06:12:59.368Z,36.63
2023-01-19T06:15:26.037Z,35.67
2023-01-19T06:17:52.424Z,35.88
2023-01-19T06:20:18.952Z,35.95
2023-01-19T06:22:45.508Z,31.02
2023-01-19T06:25:12.449Z,35.72
2023-01-19T06:27:39.870Z,31.60
2023-01-19T06:30:06.847Z,30.48
2023-01-19T06:32:33.236Z,34.13
2023-01-19T06:34:59.696Z,27.67
2023-01-19T06:37:28.207Z,30.17
2023-01-19T06:39:54.834Z,31.08
2023-01-19T06:42:21.760Z,29.67
2023-01-19T06:44:48.168Z,30.73
2023-01-19T06:47:16.464Z,28.13
2023-01-19T06:49:43.040Z,24.73
2023-01-19T06:52:15.913Z,25.98
2023-01-19T06:54:43.419Z,27.55
2023-01-19T06:57:12.228Z,26.45
2023-01-19T06:59:39.015Z,25.77
2023-01-19T07:02:27.043Z,26.85
2023-01-19T07:04:53.540Z,26.08
2023-01-19T07:07:20.788Z,29.95
2023-01-19T07:09:47.224Z,26.73
2023-01-19T07:12:14.506Z,27.38
2023-01-19T07:14:40.960Z,27.70
2023-01-19T07:17:07.695Z,24.77
2023-01-19T07:19:35.300Z,25.77
2023-01-19T07:22:03.025Z,25.60
2023-01-19T07:24:30.595Z,27.60
2023-01-19T07:26:56.952Z,29.33
2023-01-19T07:29:23.450Z,27.67
2023-01-19T07:31:50.064Z,25.42
2023-01-19T07:34:16.953Z,29.17
2023-01-19T07:36:43.995Z,28.02
2023-01-19T07:39:10.454Z,30.70
2023-01-19T07:41:36.852Z,30.38
2023-01-19T07:44:06.573Z,31.20
2023-01-19T07:46:32.972Z,34.08
2023-01-19T07:48:59.335Z,36.75
2023-01-19T07:51:25.858Z,37.72
2023-01-19T07:53:52.432Z,33.90
2023-01-19T07:56:18.843Z,37.63
2023-01-19T07:58:45.274Z,35.97
2023-01-19T08:01:13.381Z,35.17
2023-01-19T08:03:40.190Z,41.53
2023-01-19T08:06:07.345Z,35.85
2023-01-19T08:08:34.437Z,37.30
2023-01-19T08:11:00.966Z,40.25
2023-01-19T08:13:27.483Z,36.33
2023-01-19T08:15:54.429Z,36.70
2023-01-19T08:18:21.239Z,34.08
2023-01-19T08:20:47.790Z,35.55
2023-01-19T08:23:17.982Z,35.00
2023-01-19T08:25:45.171Z,34.03
2023-01-19T08:28:16.683Z,35.03
2023-01-19T08:30:44.861Z,32.85
2023-01-19T08:33:12.821Z,32.60
2023-01-19T08:35:47.246Z,37.45
2023-01-19T08:38:13.711Z,35.58
2023-01-19T08:40:41.915Z,36.25
2023-01-19T08:43:11.290Z,34.35
2023-01-19T08:45:46.411Z,33.78
2023-01-19T08:48:13.515Z,31.88
2023-01-19T08:50:40.160Z,39.08
2023-01-19T08:53:07.292Z,32.38
2023-01-19T08:55:36.063Z,32.58
2023-01-19T08:58:04.426Z,31.40
2023-01-19T09:00:33.472Z,30.13
2023-01-19T09:03:03.458Z,31.08
2023-01-19T09:05:35.757Z,31.75
2023-01-19T09:08:08.231Z,32.03
2023-01-19T09:10:36.133Z,33.38
2023-01-19T09:13:07.992Z,32.55
2023-01-19T09:15:37.320Z,34.08
2023-01-19T09:18:10.248Z,31.20
2023-01-19T09:20:38.654Z,32.75
2023-01-19T09:23:06.149Z,32.10
2023-01-19T09:25:32.790Z,36.83
2023-01-19T09:28:00.338Z,37.20
2023-01-19T09:30:27.855Z,37.33
2023-01-19T09:32:54.461Z,39.25
2023-01-19T09:35:21.657Z,39.97
2023-01-19T09:37:48.456Z,37.95
2023-01-19T09:40:18.601Z,36.90
2023-01-19T09:42:51.865Z,47.20
2023-01-19T09:45:26.949Z,45.75
2023-01-19T09:47:54.441Z,43.88
2023-01-19T09:50:27.648Z,39.72
2023-01-19T09:53:13.640Z,40.05
2023-01-19T09:55:41.942Z,41.70
2023-01-19T09:58:19.007Z,38.53
2023-01-19T10:00:52.971Z,36.63
2023-01-19T10:03:20.650Z,39.15
2023-01-19T10:05:52.737Z,38.80
2023-01-19T10:08:21.923Z,40.97
2023-01-19T10:10:53.714Z,36.33
2023-01-19T10:13:34.242Z,34.25
2023-01-19T10:16:21.083Z,36.03
2023-01-19T10:18:51.513Z,35.22
2023-01-19T10:21:23.128Z,36.67
2023-01-19T10:23:57.183Z,33.00
2023-01-19T10:26:26.984Z,34.80
2023-01-19T10:28:57.802Z,34.80
2023-01-19T10:31:24.894Z,33.13
2023-01-19T10:33:52.416Z,33.15
2023-01-19T10:36:21.872Z,31.63
2023-01-19T10:38:48.414Z,31.80
2023-01-19T10:41:19.556Z,35.28
2023-01-19T10:43:47.612Z,35.35
2023-01-19T10:46:33.311Z,33.08
2023-01-19T10:49:00.134Z,32.67
2023-01-19T10:51:27.597Z,32.75
2023-01-19T10:53:57.878Z,30.65
2023-01-19T10:56:32.536Z,30.63
2023-01-19T10:59:00.850Z,32.72
2023-01-19T11:01:30.484Z,25.77
2023-01-19T11:04:05.629Z,31.33
2023-01-19T11:06:34.334Z,27.35
2023-01-19T11:09:11.518Z,32.03
2023-01-19T11:11:50.013Z,26.27
2023-01-19T11:14:20.768Z,26.20
2023-01-19T11:16:55.977Z,30.20
2023-01-19T11:19:29.707Z,28.67
2023-01-19T11:22:15.170Z,29.63
2023-01-19T11:24:44.190Z,32.88
2023-01-19T11:27:10.560Z,33.45
2023-01-19T11:29:37.161Z,27.70
2023-01-19T11:32:19.016Z,29.15
2023-01-19T11:34:45.472Z,29.20
2023-01-19T11:37:17.954Z,31.90
2023-01-19T11:39:50.523Z,30.00
2023-01-19T11:42:18.706Z,33.60
2023-01-19T11:44:55.470Z,27.92
2023-01-19T11:47:34.037Z,33.50
2023-01-19T11:50:09.753Z,26.85
2023-01-19T11:52:43.209Z,31.92
2023-01-19T11:55:36.729Z,29.42
2023-01-19T11:58:04.944Z,33.97
2023-01-19T12:00:46.325Z,30.05
2023-01-19T12:03:35.682Z,29.13
2023-01-19T12:06:12.163Z,27.90
2023-01-19T12:09:02.985Z,29.35
2023-01-19T12:11:37.519Z,31.63
2023-01-19T12:14:06.875Z,29.65
2023-01-19T12:16:37.863Z,30.13
2023-01-19T12:19:10.745Z,28.65
2023-01-19T12:21:37.933Z,27.23
2023-01-19T12:24:16.311Z,29.60
2023-01-19T12:26:54.400Z,28.52
2023-01-19T12:29:24.937Z,30.85
2023-01-19T12:32:13.191Z,29.45
2023-01-19T12:34:51.769Z,31.52
2023-01-19T12:37:28.421Z,29.48
2023-01-19T12:40:05.474Z,28.05
2023-01-19T12:42:33.839Z,27.67
2023-01-19T12:45:25.525Z,24.60
2023-01-19T12:47:56.204Z,25.83
2023-01-19T12:50:25.899Z,27.75
2023-01-19T12:53:02.603Z,24.45
2023-01-19T12:55:33.182Z,28.98
2023-01-19T12:58:07.138Z,30.27
2023-01-19T13:00:42.832Z,23.98
2023-01-19T13:03:18.271Z,27.30
2023-01-19T13:05:44.611Z,25.85
2023-01-19T13:08:13.989Z,26.23
2023-01-19T13:11:00.250Z,28.52
2023-01-19T13:13:33.608Z,25.13
2023-01-19T13:16:20.198Z,28.13
2023-01-19T13:18:57.507Z,26.10
2023-01-19T13:21:30.563Z,26.30
2023-01-19T13:24:02.331Z,26.58
2023-01-19T13:26:42.504Z,27.33
2023-01-19T13:29:21.836Z,24.00
2023-01-19T13:31:49.570Z,23.13
2023-01-19T13:34:19.785Z,24.85
2023-01-19T13:36:51.694Z,23.63
2023-01-19T13:39:26.658Z,24.15
2023-01-19T13:41:57.173Z,23.92
2023-01-19T13:44:34.979Z,25.13
2023-01-19T13:47:04.341Z,24.35
2023-01-19T13:49:35.287Z,22.58
2023-01-19T13:52:07.789Z,28.70
2023-01-19T13:54:34.224Z,25.85
2023-01-19T13:57:00.683Z,22.20
2023-01-19T13:59:27.499Z,24.15
2023-01-19T14:01:54.248Z,26.23
2023-01-19T14:04:32.670Z,23.75
2023-01-19T14:07:23.176Z,24.38
2023-01-19T14:10:02.158Z,23.42
2023-01-19T14:12:28.662Z,19.65
2023-01-19T14:14:55.158Z,22.63
2023-01-19T14:17:28.365Z,22.73
2023-01-19T14:20:00.916Z,25.98
2023-01-19T14:22:44.849Z,20.27
2023-01-19T14:25:34.588Z,22.05
2023-01-19T14:28:30.003Z,20.77
2023-01-19T14:31:02.387Z,24.85
2023-01-19T14:33:45.224Z,23.75
2023-01-19T14:36:38.106Z,19.05
2023-01-19T14:39:06.059Z,21.85
2023-01-19T14:41:49.296Z,25.65
2023-01-19T14:44:29.856Z,21.02
2023-01-19T14:46:58.137Z,15.50
2023-01-19T14:49:32.576Z,19.85
2023-01-19T14:52:01.188Z,24.25
2023-01-19T14:54:39.160Z,21.93
2023-01-19T14:57:10.758Z,17.80
2023-01-19T14:59:37.177Z,21.50
2023-01-19T15:02:03.785Z,19.65
2023-01-19T15:04:30.201Z,20.10
2023-01-19T15:06:56.720Z,22.63
2023-01-19T15:09:23.476Z,23.95
2023-01-19T15:11:51.537Z,22.13
2023-01-19T15:14:20.065Z,18.10
2023-01-19T15:16:47.381Z,24.48
2023-01-19T15:19:15.556Z,24.20
2023-01-19T15:21:42.276Z,17.05
2023-01-19T15:24:13.039Z,19.60
2023-01-19T15:26:41.955Z,30.17
2023-01-19T15:29:25.876Z,22.80
2023-01-19T15:31:52.767Z,25.35
2023-01-19T15:34:19.264Z,20.55
2023-01-19T15:36:45.870Z,18.42
2023-01-19T15:39:12.368Z,22.15
2023-01-19T15:41:40.029Z,22.88
2023-01-19T15:44:10.049Z,19.73
2023-01-19T15:46:37.053Z,26.08
2023-01-19T15:49:05.570Z,23.48
2023-01-19T15:51:32.669Z,23.02
2023-01-19T15:53:59.025Z,20.10
2023-01-19T15:56:28.305Z,25.92
2023-01-19T15:58:55.603Z,19.55
2023-01-19T16:01:24.357Z,22.52
2023-01-19T16:03:50.834Z,17.33
2023-01-19T16:06:17.916Z,21.55
2023-01-19T16:08:44.997Z,22.75
2023-01-19T16:11:14.686Z,15.82
2023-01-19T16:13:48.310Z,18.15
2023-01-19T16:16:18.004Z,18.38
2023-01-19T16:18:44.780Z,20.90
2023-01-19T16:21:11.512Z,19.45
2023-01-19T16:23:38.119Z,17.52
2023-01-19T16:26:07.877Z,16.75
2023-01-19T16:28:35.625Z,15.07
2023-01-19T16:31:02.355Z,20.30
2023-01-19T16:33:28.771Z,21.48
2023-01-19T16:35:55.275Z,16.80
2023-01-19T16:38:23.115Z,19.15
2023-01-19T16:40:49.594Z,18.48
2023-01-19T16:43:16.444Z,16.35
2023-01-19T16:46:00.564Z,16.33
2023-01-19T16:48:27.835Z,19.02
2023-01-19T16:50:58.402Z,20.58
2023-01-19T16:53:24.757Z,13.10
2023-01-19T16:55:52.968Z,20.02
2023-01-19T16:58:19.542Z,22.48
2023-01-19T17:00:45.975Z,15.27
2023-01-19T17:03:12.744Z,17.63
2023-01-19T17:05:39.088Z,19.83
2023-01-19T17:08:05.576Z,18.20
2023-01-19T17:10:36.165Z,12.82
2023-01-19T17:13:04.027Z,17.58
2023-01-19T17:15:30.884Z,16.48
2023-01-19T17:17:57.363Z,18.80
2023-01-19T17:20:23.865Z,17.42
2023-01-19T17:22:50.367Z,15.52
2023-01-19T17:25:16.869Z,19.15
2023-01-19T17:27:43.219Z,19.48
2023-01-19T17:30:10.371Z,14.15
2023-01-19T17:32:37.041Z,16.45
2023-01-19T17:35:03.630Z,14.00
2023-01-19T17:37:30.059Z,19.45
2023-01-19T17:39:56.414Z,15.50
2023-01-19T17:42:24.260Z,16.92
2023-01-19T17:44:50.657Z,19.95
2023-01-19T17:47:17.107Z,13.70
2023-01-19T17:49:43.493Z,12.57
2023-01-19T17:52:09.833Z,14.13
2023-01-19T17:54:36.193Z,16.73
2023-01-19T17:57:02.599Z,12.68
2023-01-19T17:59:29.440Z,14.73
2023-01-19T18:01:55.810Z,12.85
2023-01-19T18:04:22.332Z,11.13
2023-01-19T18:06:50.073Z,15.88
2023-01-19T18:09:16.429Z,15.13
2023-01-19T18:11:43.018Z,9.52
2023-01-19T18:14:09.434Z,10.35
2023-01-19T18:16:36.048Z,7.78
2023-01-19T18:19:02.501Z,14.88
2023-01-19T18:21:30.371Z,16.67
2023-01-19T18:24:02.350Z,13.20
2023-01-19T18:26:29.477Z,10.48
2023-01-19T18:28:56.898Z,12.75
2023-01-19T18:31:24.150Z,10.98
2023-01-19T18:33:50.529Z,11.50
2023-01-19T18:36:17.782Z,15.95
2023-01-19T18:38:45.056Z,10.38
2023-01-19T18:41:15.566Z,10.63
2023-01-19T18:43:42.438Z,13.98
2023-01-19T18:46:09.069Z,9.77
2023-01-19T18:48:37.080Z,7.68
2023-01-19T18:51:21.709Z,9.20
2023-01-19T18:53:48.378Z,15.57
2023-01-19T18:56:16.077Z,15.18
2023-01-19T18:58:43.965Z,11.10
2023-01-19T19:01:25.914Z,16.55
2023-01-19T19:03:54.073Z,14.68
2023-01-19T19:06:21.269Z,10.88
2023-01-19T19:08:51.610Z,16.25
2023-01-19T19:11:19.499Z,9.02
2023-01-19T19:13:46.079Z,13.30
2023-01-19T19:16:14.576Z,7.28
2023-01-19T19:18:41.359Z,9.38
2023-01-19T19:21:12.101Z,7.85
2023-01-19T19:23:38.877Z,14.38
2023-01-19T19:26:11.379Z,11.00
2023-01-19T19:28:39.311Z,10.73
2023-01-19T19:31:07.667Z,11.60
2023-01-19T19:33:34.456Z,9.40
2023-01-19T19:36:00.869Z,10.60
2023-01-19T19:38:28.455Z,9.02
2023-01-19T19:40:57.144Z,12.23
2023-01-19T19:43:24.601Z,9.55
2023-01-19T19:46:02.612Z,9.77
2023-01-19T19:48:29.544Z,12.45
2023-01-19T19:50:58.617Z,6.85
2023-01-19T19:53:27.553Z,13.05
2023-01-19T19:55:59.613Z,8.70
2023-01-19T19:58:27.607Z,6.93
2023-01-19T20:00:54.379Z,12.40
2023-01-19T20:03:21.164Z,14.88
2023-01-19T20:05:48.022Z,9.75
2023-01-19T20:08:14.756Z,12.95
2023-01-19T20:10:41.120Z,10.77
2023-01-19T20:13:09.263Z,8.95
2023-01-19T20:15:39.379Z,10.82
2023-01-19T20:18:06.473Z,7.35
2023-01-19T20:20:34.269Z,15.23
2023-01-19T20:23:01.414Z,7.40
2023-01-19T20:25:28.803Z,10.57
2023-01-19T20:27:56.885Z,9.38
2023-01-19T20:30:23.451Z,11.27
2023-01-19T20:32:51.313Z,8.15
2023-01-19T20:35:18.221Z,15.88
2023-01-19T20:37:44.643Z,11.52
2023-01-19T20:40:11.100Z,10.02
2023-01-19T20:42:41.211Z,8.25
2023-01-19T20:45:08.628Z,14.20
2023-01-19T20:47:35.164Z,10.05
2023-01-19T20:50:01.570Z,6.30
2023-01-19T20:52:28.062Z,12.75
2023-01-19T20:54:54.747Z,12.43
2023-01-19T20:57:21.221Z,14.65
2023-01-19T20:59:47.604Z,14.55
2023-01-19T21:02:15.902Z,7.78
2023-01-19T21:04:42.333Z,9.18
2023-01-19T21:07:09.045Z,12.45
2023-01-19T21:09:37.423Z,7.75
2023-01-19T21:12:04.074Z,13.90
2023-01-19T21:14:30.645Z,9.20
2023-01-19T21:16:58.503Z,12.57
2023-01-19T21:19:25.606Z,14.15
2023-01-19T21:21:52.035Z,11.00
2023-01-19T21:24:18.568Z,13.32
2023-01-19T21:26:44.976Z,12.60
2023-01-19T21:29:13.250Z,10.55
2023-01-19T21:31:41.026Z,10.05
2023-01-19T21:34:07.587Z,8.52
2023-01-19T21:36:33.973Z,9.82
2023-01-19T21:39:00.969Z,13.98
2023-01-19T21:41:28.361Z,10.88
2023-01-19T21:43:54.962Z,9.77
2023-01-19T21:46:29.057Z,13.13
2023-01-19T21:48:57.340Z,15.57
2023-01-19T21:51:23.740Z,19.33
2023-01-19T21:53:52.164Z,15.55
2023-01-19T21:56:18.758Z,14.13
2023-01-19T21:59:04.224Z,11.88
2023-01-19T22:01:31.885Z,12.35
2023-01-19T22:03:58.686Z,16.00
2023-01-19T22:06:26.400Z,10.85
2023-01-19T22:08:54.497Z,13.23
2023-01-19T22:11:21.604Z,16.42
2023-01-19T22:13:48.451Z,15.20
2023-01-19T22:16:17.996Z,15.85
2023-01-19T22:18:49.315Z,23.55
2023-01-19T22:21:18.292Z,10.32
2023-01-19T22:23:50.737Z,21.33
2023-01-19T22:26:17.653Z,15.32
2023-01-19T22:28:44.696Z,12.00
2023-01-19T22:31:17.730Z,14.80
2023-01-19T22:33:44.902Z,11.73
2023-01-19T22:36:20.084Z,15.52
2023-01-19T22:38:57.900Z,25.10
2023-01-19T22:41:32.197Z,11.25
2023-01-19T22:44:01.162Z,10.23
2023-01-19T22:46:30.693Z,15.40
2023-01-19T22:48:57.775Z,13.57
2023-01-19T22:51:25.733Z,14.30
2023-01-19T22:53:52.906Z,9.65
2023-01-19T22:56:23.342Z,10.82
2023-01-19T22:58:49.958Z,11.13
2023-01-19T23:01:22.196Z,12.10
2023-01-19T23:03:49.486Z,10.93
2023-01-19T23:06:20.019Z,8.57
2023-01-19T23:08:46.451Z,15.88
2023-01-19T23:11:19.643Z,13.75
2023-01-19T23:13:46.224Z,14.43
2023-01-19T23:16:14.068Z,18.42
2023-01-19T23:18:41.505Z,8.88
2023-01-19T23:21:12.668Z,12.98
2023-01-19T23:23:40.215Z,10.35
2023-01-19T23:26:08.279Z,19.38
2023-01-19T23:28:34.793Z,15.95
2023-01-19T23:31:01.355Z,11.65
2023-01-19T23:33:27.816Z,15.48
2023-01-19T23:35:55.653Z,11.95
2023-01-19T23:38:22.662Z,12.60
2023-01-19T23:40:49.125Z,14.80
2023-01-19T23:43:15.949Z,11.60
2023-01-19T23:45:42.400Z,9.05
2023-01-19T23:48:08.747Z,17.70
2023-01-19T23:50:39.461Z,15.65
2023-01-19T23:53:05.813Z,8.07
2023-01-19T23:55:32.338Z,17.38
2023-01-19T23:57:58.714Z,11.75
